Time;durP1;ratioP1;P1;durP2;ratioP2;P2;SDS_P1;SDS_P2;PMS_P1;PMS_P2;Temp;Humidity;BMP_temperature;BMP_pressure;BME280_temperature;BME280_humidity;BME280_pressure;Samples;Min_cycle;Max_cycle;Signal;HPM_P1;HPM_P2
2023/05/23 00:00:28;;;;;;;33.70;15.52;;;15.50;99.90;;;15.89;95.83;101937.81;5084731;28;20049;-67
2023/05/23 00:02:56;;;;;;;38.05;16.15;;;15.60;99.90;;;15.85;95.57;101945.88;5086788;28;20455;-68
2023/05/23 00:05:25;;;;;;;29.10;14.90;;;15.60;99.90;;;15.91;95.60;101938.69;5083683;28;20056;-66
2023/05/23 00:07:55;;;;;;;36.10;15.48;;;15.70;99.90;;;16.02;95.45;101946.63;5079462;28;20040;-67
2023/05/23 00:10:24;;;;;;;36.35;14.88;;;15.80;99.90;;;15.97;94.94;101941.31;5086604;28;20420;-66
2023/05/23 00:12:52;;;;;;;28.05;14.25;;;15.80;99.90;;;16.03;95.09;101940.38;5084511;28;20068;-67
2023/05/23 00:15:21;;;;;;;32.00;14.50;;;15.70;99.90;;;15.98;95.00;101935.09;5085859;28;20059;-66
2023/05/23 00:17:50;;;;;;;28.92;13.68;;;15.80;99.90;;;16.07;94.84;101934.09;5085101;28;20064;-67
2023/05/23 00:20:20;;;;;;;23.67;12.35;;;15.80;99.90;;;16.02;94.80;101933.28;5084816;28;20492;-66
2023/05/23 00:22:48;;;;;;;26.00;12.32;;;15.80;99.90;;;15.29;94.53;101792.53;5086040;28;20044;-67
2023/05/23 00:25:20;;;;;;;22.65;12.13;;;15.80;99.90;;;16.09;94.71;101938.53;5083852;28;20048;-67
2023/05/23 00:27:49;;;;;;;18.40;11.38;;;15.80;99.90;;;16.18;94.76;101948.25;5112188;27;20044;-67
2023/05/23 00:30:17;;;;;;;20.60;11.60;;;15.90;99.90;;;16.30;94.49;101949.91;5085073;28;20044;-66
2023/05/23 00:32:45;;;;;;;23.25;12.77;;;16.00;99.90;;;16.34;94.34;101947.16;5082861;28;20449;-67
2023/05/23 00:35:14;;;;;;;26.23;11.93;;;16.00;99.90;;;16.18;94.76;101951.78;5085546;28;20044;-66
2023/05/23 00:37:42;;;;;;;24.80;12.63;;;15.90;99.90;;;16.29;94.90;101949.00;5084672;28;20129;-66
2023/05/23 00:40:12;;;;;;;21.63;12.38;;;16.00;99.90;;;16.24;94.83;101946.38;5100791;28;20052;-66
2023/05/23 00:42:41;;;;;;;27.80;12.27;;;16.00;99.90;;;16.13;95.54;101950.94;5067610;28;20101;-67
2023/05/23 00:45:11;;;;;;;25.90;13.13;;;15.90;99.90;;;16.22;95.11;101957.97;5083690;28;20037;-66
2023/05/23 00:47:40;;;;;;;31.10;13.18;;;15.90;99.90;;;16.13;95.21;101963.41;5086426;28;20048;-67
2023/05/23 00:50:13;;;;;;;27.20;12.32;;;15.90;99.90;;;16.21;95.56;101958.88;5061914;28;20049;-66
2023/05/23 00:52:43;;;;;;;38.63;13.38;;;15.90;99.90;;;16.30;95.27;101955.25;5084296;28;20058;-66
2023/05/23 00:55:12;;;;;;;27.80;12.55;;;16.00;99.90;;;16.40;95.07;101955.13;5099907;28;20056;-66
2023/05/23 00:57:44;;;;;;;24.63;12.27;;;16.10;99.90;;;16.44;94.50;101951.50;5083973;28;20569;-66
2023/05/23 01:00:14;;;;;;;31.02;13.45;;;16.10;99.90;;;16.50;93.43;101947.91;5085373;28;20477;-66
2023/05/23 01:02:46;;;;;;;34.83;13.63;;;16.20;99.90;;;16.54;93.22;101955.00;5082604;28;20053;-66
2023/05/23 01:05:17;;;;;;;30.98;12.35;;;16.30;99.90;;;16.52;92.75;101952.34;5079844;28;20528;-66
2023/05/23 01:07:46;;;;;;;32.28;12.55;;;16.30;99.90;;;16.65;92.41;101958.41;5085357;28;20134;-66
2023/05/23 01:10:15;;;;;;;31.13;12.07;;;16.40;99.90;;;16.58;91.62;101954.06;5084032;28;20036;-66
2023/05/23 01:13:06;;;;;;;34.45;12.80;;;16.30;99.90;;;16.68;91.28;101950.38;5082765;28;20139;-66
2023/05/23 01:15:42;;;;;;;27.63;12.77;;;16.40;99.90;;;16.75;90.84;101955.63;5081601;28;20448;-66
2023/05/23 01:18:16;;;;;;;28.13;12.35;;;16.50;99.90;;;16.71;90.62;101956.56;5082982;28;20052;-66
2023/05/23 01:20:51;;;;;;;38.03;13.27;;;16.40;99.90;;;16.63;89.70;101937.06;5082229;28;20059;-66
2023/05/23 01:24:16;;;;;;;31.42;12.50;;;16.40;99.90;;;16.77;88.95;101950.25;5084447;28;20558;-66
2023/05/23 01:27:01;;;;;;;37.55;11.82;;;16.50;99.90;;;16.71;88.12;101956.56;5081294;28;20397;-66
2023/05/23 01:29:35;;;;;;;34.80;11.73;;;16.40;99.90;;;16.78;87.66;101950.22;5078251;28;20149;-66
2023/05/23 01:32:10;;;;;;;31.50;11.50;;;16.50;99.90;;;16.71;86.79;101963.69;5084597;28;20044;-66
2023/05/23 01:34:40;;;;;;;34.05;12.23;;;16.50;99.90;;;16.50;87.18;101927.44;5084543;28;20049;-66
2023/05/23 01:37:10;;;;;;;25.17;11.07;;;16.40;99.90;;;16.64;86.79;101957.56;5082587;28;20119;-66
2023/05/23 01:39:39;;;;;;;;;;;16.40;99.90;;;16.52;86.20;101941.66;5101573;28;20066;-66
2023/05/23 01:42:08;;;;;;;30.77;10.98;;;16.40;99.90;;;16.72;86.00;101958.34;5078299;28;19920;-66
2023/05/23 01:44:38;;;;;;;32.08;11.30;;;16.40;99.90;;;16.80;85.62;101959.13;5085138;28;20105;-66
2023/05/23 01:47:09;;;;;;;29.63;11.25;;;16.50;99.90;;;16.79;85.45;101960.03;5065495;28;20081;-67
2023/05/23 01:49:39;;;;;;;31.05;11.32;;;16.50;99.90;;;16.81;84.99;101952.88;5083195;28;20097;-65
2023/05/23 01:52:09;;;;;;;28.33;11.00;;;16.50;99.90;;;16.64;85.01;101936.19;5083989;28;20044;-67
2023/05/23 01:54:41;;;;;;;26.55;10.88;;;16.50;99.90;;;16.81;84.90;101966.25;5096809;28;20051;-67
2023/05/23 01:57:10;;;;;;;30.05;11.07;;;16.50;99.90;;;16.70;84.68;101972.63;5052488;28;20375;-67
2023/05/23 01:59:40;;;;;;;30.60;10.82;;;16.50;99.90;;;16.68;85.68;101979.78;5100283;28;20070;-66
2023/05/23 02:02:09;;;;;;;29.40;11.67;;;16.40;99.90;;;16.60;85.01;101970.97;5081108;28;20053;-66
2023/05/23 02:04:37;;;;;;;28.42;11.27;;;16.40;99.90;;;16.50;85.04;101975.53;5083515;28;20071;-66
2023/05/23 02:07:06;;;;;;;33.25;11.10;;;16.20;99.90;;;16.45;84.82;101976.44;5098752;28;20048;-66
2023/05/23 02:09:34;;;;;;;32.42;12.20;;;16.20;99.90;;;16.47;85.42;101975.53;5082915;28;20040;-66
2023/05/23 02:12:02;;;;;;;35.40;11.18;;;16.20;99.90;;;16.54;85.67;101976.38;5082539;28;20040;-66
2023/05/23 02:14:31;;;;;;;34.20;11.40;;;16.20;99.90;;;16.49;85.05;101973.72;5097676;28;20633;-66
2023/05/23 02:17:00;;;;;;;31.90;11.43;;;16.20;99.90;;;16.56;85.01;101972.78;5084451;28;20047;-66
2023/05/23 02:19:29;;;;;;;33.20;11.63;;;16.30;99.90;;;16.52;84.69;101983.50;5092451;28;20084;-66
2023/05/23 02:21:57;;;;;;;33.30;11.90;;;16.20;99.90;;;16.39;84.46;101980.06;5084559;28;20047;-66
2023/05/23 02:24:25;;;;;;;35.28;11.02;;;16.20;99.90;;;16.42;84.51;101992.47;5081446;28;20478;-66
2023/05/23 02:26:54;;;;;;;40.33;12.20;;;16.20;99.90;;;16.49;84.38;101988.91;5083872;28;20115;-66
2023/05/23 02:29:22;;;;;;;33.35;11.43;;;16.20;99.90;;;16.30;84.58;101972.13;5089738;28;20550;-67
2023/05/23 02:31:51;;;;;;;33.45;11.35;;;16.10;99.90;;;16.35;84.91;101998.78;5081608;28;20448;-66
2023/05/23 02:34:21;;;;;;;30.25;11.25;;;16.10;99.90;;;16.37;84.70;101992.56;5082909;28;20055;-67
2023/05/23 02:36:50;;;;;;;26.33;10.95;;;16.10;99.90;;;16.31;84.03;102011.31;5082045;28;20052;-67
2023/05/23 02:39:18;;;;;;;25.60;9.77;;;16.10;99.90;;;16.27;84.37;102004.22;5066512;28;20050;-66
2023/05/23 02:41:47;;;;;;;30.40;11.00;;;16.10;99.90;;;16.32;84.64;102004.19;5080991;28;20050;-66
2023/05/23 02:44:18;;;;;;;33.17;10.70;;;16.10;99.90;;;16.31;84.80;102005.06;5051312;28;20098;-66
2023/05/23 02:46:46;;;;;;;30.58;10.55;;;16.00;99.90;;;16.35;84.49;102010.38;5099254;28;20047;-66
2023/05/23 02:49:15;;;;;;;31.88;10.88;;;16.10;99.90;;;16.43;84.33;102012.97;5081933;28;20052;-66
2023/05/23 02:51:44;;;;;;;34.58;10.68;;;16.10;99.90;;;16.39;84.62;102011.22;5082747;28;20044;-66
2023/05/23 02:54:13;;;;;;;26.30;10.80;;;16.20;99.90;;;16.40;84.96;102026.31;5098321;28;20588;-66
2023/05/23 02:56:41;;;;;;;36.33;10.35;;;16.10;99.90;;;16.37;84.77;102015.69;5080714;28;20343;-66
2023/05/23 02:59:11;;;;;;;32.83;9.68;;;16.10;99.90;;;16.34;84.75;102031.75;5098732;28;20515;-66
2023/05/23 03:01:39;;;;;;;29.30;10.18;;;16.10;99.90;;;16.31;85.05;102021.97;5081145;28;20056;-66
2023/05/23 03:04:07;;;;;;;34.53;9.85;;;16.00;99.90;;;16.28;84.94;102032.66;5083004;28;20070;-66
2023/05/23 03:06:36;;;;;;;34.58;10.07;;;16.00;99.90;;;16.28;84.68;102030.00;5079471;28;20041;-66
2023/05/23 03:09:06;;;;;;;30.65;10.30;;;16.10;99.90;;;16.00;86.09;102025.81;5103837;28;20047;-66
2023/05/23 03:11:35;;;;;;;34.13;11.18;;;15.80;99.90;;;15.95;85.80;102039.19;5085495;28;20417;-66
2023/05/23 03:14:03;;;;;;;30.88;10.05;;;15.70;99.90;;;15.81;86.23;102033.09;5087115;28;20122;-66
2023/05/23 03:16:31;;;;;;;32.00;10.10;;;15.60;99.90;;;15.93;85.80;102040.13;5069175;28;20045;-66
2023/05/23 03:19:00;;;;;;;24.70;9.52;;;15.70;99.90;;;16.01;85.50;102038.25;5118901;27;20519;-66
2023/05/23 03:21:28;;;;;;;31.52;9.82;;;15.70;99.90;;;15.91;85.06;102036.56;5085696;28;20067;-66
2023/05/23 03:23:57;;;;;;;28.08;10.02;;;15.70;99.90;;;15.78;84.63;102030.41;5085262;28;20555;-66
2023/05/23 03:26:27;;;;;;;25.25;8.57;;;15.60;99.90;;;15.85;84.80;102025.94;5086176;28;20068;-67
2023/05/23 03:28:55;;;;;;;21.23;8.63;;;15.60;99.90;;;15.67;83.72;102037.63;5117177;27;20106;-66
2023/05/23 03:31:23;;;;;;;20.83;9.10;;;15.50;99.90;;;15.61;83.83;102007.44;5080804;28;20049;-67
2023/05/23 03:33:52;;;;;;;27.95;8.35;;;15.40;99.90;;;15.72;83.37;102034.91;5086117;28;20048;-66
2023/05/23 03:36:24;;;;;;;26.35;8.57;;;15.40;99.90;;;15.50;82.77;102027.94;5085093;28;20113;-66
2023/05/23 03:38:53;;;;;;;22.00;8.27;;;15.40;99.90;;;15.55;82.76;102023.47;5085909;28;20435;-66
2023/05/23 03:41:21;;;;;;;19.63;8.65;;;15.40;99.90;;;15.66;82.35;102032.31;5101981;28;20045;-66
2023/05/23 03:43:51;;;;;;;18.38;8.27;;;15.40;99.90;;;15.67;82.08;102034.06;5083905;28;20421;-66
2023/05/23 03:46:19;;;;;;;21.33;8.63;;;15.40;99.90;;;15.75;81.81;102030.47;5087298;28;20114;-66
2023/05/23 03:48:48;;;;;;;23.15;8.70;;;15.50;99.90;;;15.84;81.66;102046.38;5084060;28;20099;-66
2023/05/23 03:51:16;;;;;;;20.23;8.18;;;15.60;99.90;;;15.92;81.44;102051.66;5095208;28;20063;-66
2023/05/23 03:53:45;;;;;;;21.65;9.45;;;15.60;99.90;;;15.87;81.62;102045.50;5086191;28;20048;-66
2023/05/23 03:56:14;;;;;;;21.20;8.98;;;15.60;99.90;;;15.86;81.65;102033.03;5100438;28;20098;-66
2023/05/23 03:58:43;;;;;;;22.02;8.98;;;15.70;99.90;;;15.98;81.74;102055.19;5084978;28;20484;-66
2023/05/23 04:01:15;;;;;;;26.98;9.13;;;15.70;99.90;;;15.81;79.71;102058.88;5084267;28;20045;-66
2023/05/23 04:03:45;;;;;;;23.63;9.30;;;15.60;99.90;;;15.71;79.84;102067.81;5083406;28;20047;-66
2023/05/23 04:06:13;;;;;;;21.40;8.80;;;15.50;99.90;;;15.69;79.58;102070.50;5119665;27;20353;-66
2023/05/23 04:08:44;;;;;;;25.88;9.05;;;15.40;99.90;;;15.84;79.44;102077.53;5099093;28;20109;-66
2023/05/23 04:11:13;;;;;;;28.98;9.88;;;15.60;99.90;;;15.89;78.90;102075.72;5095639;28;20501;-66
2023/05/23 04:13:42;;;;;;;24.77;9.20;;;15.60;99.90;;;15.80;78.13;102076.66;5102316;28;20431;-67
2023/05/23 04:16:11;;;;;;;19.52;8.80;;;15.50;99.90;;;15.70;78.32;102076.75;5100138;28;20074;-66
2023/05/23 04:18:42;;;;;;;21.10;10.00;;;15.50;99.90;;;15.78;78.49;102081.13;5084708;28;20726;-66
2023/05/23 04:21:10;;;;;;;22.13;9.52;;;15.50;99.90;;;15.76;78.58;102076.69;5068168;28;20044;-66
2023/05/23 04:23:47;;;;;;;25.65;9.75;;;15.50;99.90;;;15.79;79.23;102082.00;5099163;28;20444;-66
2023/05/23 04:26:16;;;;;;;25.88;9.55;;;15.50;99.90;;;15.82;79.49;102076.63;5054337;28;20498;-66
2023/05/23 04:28:53;;;;;;;26.95;10.52;;;15.60;99.90;;;15.83;79.14;102087.28;5084120;28;20189;-66
2023/05/23 04:31:22;;;;;;;26.63;11.05;;;15.50;99.90;;;15.90;79.24;102083.72;5084168;28;20048;-66
2023/05/23 04:33:55;;;;;;;37.05;11.55;;;15.60;99.90;;;15.85;78.20;102079.31;5084138;28;20059;-66
2023/05/23 04:36:24;;;;;;;30.27;10.98;;;15.60;99.90;;;15.76;78.06;102087.34;5085476;28;20044;-66
2023/05/23 04:38:55;;;;;;;29.67;11.40;;;15.50;99.90;;;15.66;77.48;102085.66;5078599;28;20787;-66
2023/05/23 04:41:23;;;;;;;24.58;11.13;;;15.40;99.90;;;15.66;77.35;102091.84;5084534;28;20065;-66
2023/05/23 04:44:06;;;;;;;27.17;11.07;;;15.40;99.90;;;15.65;77.16;102097.19;5101779;28;20052;-66
2023/05/23 04:46:40;;;;;;;29.65;11.35;;;15.40;99.90;;;15.60;77.52;102089.22;5078004;28;20044;-66
2023/05/23 04:49:20;;;;;;;32.35;12.05;;;15.40;99.90;;;15.54;78.68;102109.72;5083743;28;20412;-66
2023/05/23 04:51:49;;;;;;;30.65;11.80;;;15.30;99.90;;;15.18;78.37;102047.63;5100641;28;20509;-66
2023/05/23 04:54:21;;;;;;;22.73;11.23;;;15.30;99.90;;;15.65;78.55;102110.53;5081824;28;20206;-66
2023/05/23 04:56:50;;;;;;;26.58;10.98;;;15.40;99.90;;;15.65;77.10;102115.88;5111379;27;20102;-67
2023/05/23 04:59:20;;;;;;;32.05;11.27;;;15.40;99.90;;;15.46;76.58;102111.53;5084688;28;20142;-66
2023/05/23 05:01:48;;;;;;;30.23;11.25;;;15.30;99.90;;;15.49;76.70;102116.84;5083386;28;20051;-66
2023/05/23 05:04:18;;;;;;;34.15;11.85;;;15.30;99.90;;;15.14;77.06;102117.84;5083586;28;20055;-66
2023/05/23 05:06:47;;;;;;;25.27;11.27;;;15.00;99.90;;;15.29;77.44;102119.59;5083199;28;20447;-66
2023/05/23 05:09:16;;;;;;;27.47;11.77;;;15.00;99.90;;;15.31;77.16;102129.31;5116689;27;20048;-66
2023/05/23 05:11:45;;;;;;;23.85;11.00;;;15.10;99.90;;;15.31;76.53;102123.13;5085160;28;20044;-66
2023/05/23 05:14:14;;;;;;;25.88;11.63;;;15.10;99.90;;;15.25;76.27;102129.34;5081496;28;20504;-66
2023/05/23 05:16:44;;;;;;;28.42;11.07;;;15.10;99.90;;;15.27;76.01;102122.22;5060821;28;20048;-66
2023/05/23 05:19:13;;;;;;;29.23;10.90;;;15.00;99.90;;;15.08;76.65;102139.16;5077790;28;20521;-66
2023/05/23 05:21:43;;;;;;;29.90;11.38;;;14.80;99.90;;;15.19;76.71;102134.69;5083868;28;20044;-66
2023/05/23 05:24:11;;;;;;;25.58;11.20;;;15.00;99.90;;;15.33;75.87;102138.19;5066008;28;20041;-66
2023/05/23 05:26:40;;;;;;;25.92;11.13;;;15.10;99.90;;;15.49;76.02;102131.06;5084301;28;20562;-66
2023/05/23 05:29:08;;;;;;;32.53;11.35;;;15.20;99.90;;;15.63;75.76;102139.91;5098499;28;20049;-66
2023/05/23 05:31:37;;;;;;;26.92;10.93;;;15.30;99.90;;;15.68;75.51;102134.56;5083148;28;20366;-66
2023/05/23 05:34:05;;;;;;;33.63;12.18;;;15.40;99.90;;;15.56;75.90;102145.28;5100565;28;20075;-66
2023/05/23 05:36:33;;;;;;;29.88;11.40;;;15.30;99.90;;;15.59;76.54;102134.56;5097992;28;20562;-66
2023/05/23 05:39:05;;;;;;;29.48;11.77;;;15.30;99.90;;;15.61;76.50;102148.78;5084108;28;20052;-66
2023/05/23 05:41:33;;;;;;;31.40;11.77;;;15.40;99.90;;;15.72;76.59;102154.97;5061205;28;20049;-66
2023/05/23 05:44:02;;;;;;;22.80;10.82;;;15.40;99.90;;;15.62;76.28;102151.44;5084341;28;20120;-66
2023/05/23 05:46:30;;;;;;;21.48;10.50;;;15.30;99.90;;;15.72;76.63;102150.53;5098577;28;20045;-66
2023/05/23 05:48:59;;;;;;;24.30;10.00;;;15.40;99.90;;;15.68;76.80;102151.41;5116601;27;20489;-66
2023/05/23 05:51:28;;;;;;;25.83;10.40;;;15.50;99.90;;;15.65;77.12;102146.13;5065790;28;20056;-66
2023/05/23 05:53:56;;;;;;;19.45;10.73;;;15.40;99.90;;;15.72;77.59;102146.94;5082972;28;20044;-66
2023/05/23 05:56:26;;;;;;;25.42;10.10;;;15.40;99.90;;;15.55;78.40;102156.81;5082750;28;20447;-66
2023/05/23 05:58:55;;;;;;;25.02;9.60;;;15.30;99.90;;;15.69;78.94;102152.31;5080784;28;20094;-66
2023/05/23 06:01:25;;;;;;;24.42;9.55;;;15.40;99.90;;;15.75;78.99;102154.97;5075981;28;20041;-66
2023/05/23 06:03:54;;;;;;;20.92;8.75;;;15.40;99.90;;;15.78;79.72;102157.59;5093739;28;20493;-66
2023/05/23 06:06:22;;;;;;;18.45;8.27;;;15.50;99.90;;;15.74;79.58;102162.06;5100011;28;20032;-66
2023/05/23 06:08:52;;;;;;;20.92;7.97;;;15.50;99.90;;;15.64;80.08;102162.13;5098040;28;20113;-66
2023/05/23 06:11:20;;;;;;;20.80;7.63;;;15.40;99.90;;;15.71;79.82;102161.19;5083420;28;20080;-66
2023/05/23 06:13:50;;;;;;;21.80;8.13;;;15.40;99.90;;;15.74;79.61;102166.50;5083313;28;20047;-66
2023/05/23 06:16:19;;;;;;;17.77;8.50;;;15.40;99.90;;;15.80;79.32;102164.72;5097984;28;20048;-66
2023/05/23 06:18:47;;;;;;;16.77;7.05;;;15.50;99.90;;;15.85;79.21;102165.56;5082788;28;20044;-66
2023/05/23 06:21:16;;;;;;;15.20;6.55;;;15.60;99.90;;;15.73;79.09;102173.66;5081332;28;20054;-66
2023/05/23 06:23:49;;;;;;;14.25;6.05;;;15.50;99.90;;;15.74;79.14;102179.84;5076471;28;20051;-66
2023/05/23 06:26:17;;;;;;;18.10;6.68;;;15.50;99.90;;;15.81;78.91;102176.28;5082856;28;20048;-66
2023/05/23 06:28:45;;;;;;;15.18;6.55;;;15.50;99.90;;;15.68;79.01;102182.56;5082149;28;20106;-66
2023/05/23 06:31:15;;;;;;;19.38;6.28;;;15.40;99.90;;;15.59;79.66;102182.59;5083169;28;20117;-66
2023/05/23 06:33:43;;;;;;;22.23;6.87;;;15.40;99.90;;;15.51;80.13;102184.41;5081689;28;20048;-66
2023/05/23 06:36:12;;;;;;;16.52;6.45;;;15.30;99.90;;;15.48;80.45;102176.41;5080741;28;20079;-66
2023/05/23 06:38:40;;;;;;;20.25;6.05;;;15.30;99.90;;;15.64;80.41;102186.16;5082431;28;20048;-66
2023/05/23 06:41:08;;;;;;;16.73;5.95;;;15.40;99.90;;;15.73;79.99;102186.09;5080919;28;20044;-66
2023/05/23 06:43:37;;;;;;;17.83;6.28;;;15.50;99.90;;;15.74;78.58;102180.75;5100104;28;20550;-66
2023/05/23 06:46:24;;;;;;;22.40;5.60;;;15.50;99.90;;;15.81;76.46;102181.63;5080224;28;20055;-66
2023/05/23 06:48:52;;;;;;;16.20;6.03;;;15.60;99.90;;;15.85;74.52;102186.91;5097082;28;20075;-66
2023/05/23 06:51:41;;;;;;;22.60;6.78;;;15.60;99.90;;;15.87;74.91;102146.91;5079006;28;20084;-66
2023/05/23 06:54:10;;;;;;;19.90;6.30;;;15.70;99.90;;;16.04;72.61;102182.38;5082086;28;20464;-66
2023/05/23 06:56:38;;;;;;;18.23;5.78;;;15.80;99.90;;;16.06;71.28;102188.59;5099112;28;20408;-66
2023/05/23 06:59:07;;;;;;;22.02;6.15;;;15.90;99.90;;;16.26;70.76;102189.34;5096637;28;20087;-66
2023/05/23 07:01:36;;;;;;;24.58;6.90;;;16.00;99.90;;;16.36;70.20;102198.19;5099664;28;20493;-66
2023/05/23 07:04:05;;;;;;;27.23;7.03;;;16.10;99.90;;;16.42;69.35;102201.69;5051573;28;20098;-66
2023/05/23 07:06:35;;;;;;;19.08;6.57;;;16.20;99.90;;;16.51;68.96;102201.66;5083694;28;20064;-66
2023/05/23 07:09:06;;;;;;;21.60;6.80;;;16.30;99.90;;;16.38;68.21;102199.94;5080624;28;20068;-66
2023/05/23 07:11:35;;;;;;;27.77;8.02;;;16.20;99.90;;;16.37;67.66;102203.53;5097828;28;20105;-66
2023/05/23 07:14:04;;;;;;;20.30;7.07;;;16.10;99.90;;;16.45;68.05;102195.47;5065757;28;20056;-66
2023/05/23 07:16:46;;;;;;;23.90;7.13;;;16.20;99.90;;;16.50;67.64;102205.25;5077000;28;20057;-66
2023/05/23 07:19:14;;;;;;;26.70;6.40;;;16.30;99.90;;;16.45;67.35;102204.38;5082059;28;20047;-66
2023/05/23 07:21:46;;;;;;;24.27;7.18;;;16.20;99.90;;;16.51;66.88;102215.03;5097855;28;20432;-67
2023/05/23 07:24:17;;;;;;;20.33;6.82;;;16.30;99.90;;;16.52;66.93;102213.25;5097515;28;20482;-66
2023/05/23 07:26:46;;;;;;;25.20;7.22;;;16.30;99.90;;;16.58;66.85;102215.88;5098864;28;20059;-67
2023/05/23 07:29:14;;;;;;;22.23;6.70;;;16.40;99.90;;;16.43;66.21;102176.78;5096468;28;20102;-67
2023/05/23 07:31:46;;;;;;;23.27;7.40;;;16.40;99.90;;;16.66;65.47;102222.94;5092058;28;20485;-67
2023/05/23 07:34:17;;;;;;;28.40;7.50;;;16.50;99.90;;;16.76;65.98;102237.97;5081878;28;20048;-66
2023/05/23 07:36:55;;;;;;;23.33;7.15;;;16.50;99.90;;;16.87;65.77;102227.22;5081720;28;20115;-66
2023/05/23 07:39:26;;;;;;;32.30;7.72;;;16.70;99.90;;;16.97;65.62;102235.16;5079671;28;20072;-66
2023/05/23 07:41:56;;;;;;;17.85;6.22;;;16.70;99.90;;;17.11;65.00;102230.56;5091826;28;20098;-66
2023/05/23 07:44:25;;;;;;;24.27;6.93;;;16.90;99.90;;;17.12;64.40;102227.00;5099309;28;20055;-66
2023/05/23 07:46:55;;;;;;;23.05;6.68;;;16.90;99.90;;;16.82;63.30;102180.94;5096455;28;20044;-66
2023/05/23 07:49:24;;;;;;;;;;;16.90;99.90;;;17.11;63.40;102227.03;5098718;28;20052;-66
2023/05/23 07:51:54;;;;;;;23.67;7.10;;;16.90;99.90;;;17.04;63.29;102236.88;5064675;28;19978;-66
2023/05/23 07:54:22;;;;;;;24.25;7.25;;;16.80;99.90;;;17.19;63.50;102242.97;5085157;28;20404;-67
2023/05/23 07:56:55;;;;;;;21.98;7.55;;;16.90;99.90;;;17.25;62.90;102240.25;5085879;28;20052;-67
2023/05/23 07:59:24;;;;;;;20.67;6.90;;;17.00;99.90;;;17.21;63.24;102235.84;5099293;28;20053;-67
2023/05/23 08:01:53;;;;;;;25.98;8.00;;;16.90;99.90;;;17.49;63.61;102248.03;5080254;28;20044;-66
2023/05/23 08:04:24;;;;;;;28.55;7.30;;;17.20;99.90;;;17.76;63.36;102245.06;5085502;28;20138;-67
2023/05/23 08:06:55;;;;;;;30.63;7.07;;;17.50;99.90;;;17.68;62.23;102253.19;5067926;28;20865;-66
2023/05/23 08:09:30;;;;;;;23.17;7.10;;;17.50;99.90;;;17.66;61.98;102240.72;5082954;28;20182;-67
2023/05/23 08:11:59;;;;;;;25.50;6.50;;;17.50;99.90;;;17.94;62.30;102248.38;5102760;28;20075;-66
2023/05/23 08:14:29;;;;;;;19.15;6.70;;;17.70;99.90;;;17.77;60.70;102195.97;5095424;28;20041;-66
2023/05/23 08:17:23;;;;;;;25.75;6.72;;;17.80;99.90;;;18.04;60.67;102252.72;5082137;28;20048;-67
2023/05/23 08:19:54;;;;;;;26.77;7.70;;;17.90;99.90;;;18.01;60.64;102255.44;5095963;28;20045;-66
2023/05/23 08:22:23;;;;;;;30.08;7.70;;;17.80;99.90;;;18.06;60.84;102244.66;5084663;28;20059;-66
2023/05/23 08:24:51;;;;;;;23.67;6.82;;;17.90;99.90;;;17.99;60.24;102262.63;5083603;28;20079;-67
2023/05/23 08:27:20;;;;;;;22.60;6.90;;;17.80;99.90;;;17.89;59.36;102270.78;5083960;28;20052;-67
2023/05/23 08:29:54;;;;;;;20.13;6.90;;;17.70;99.90;;;17.79;59.11;102266.44;5101773;28;20075;-66
2023/05/23 08:32:22;;;;;;;16.50;6.40;;;17.60;99.90;;;17.86;58.35;102274.41;5099224;28;20152;-67
2023/05/23 08:34:52;;;;;;;21.70;7.45;;;17.70;99.90;;;17.89;58.00;102276.13;5085521;28;20135;-66
2023/05/23 08:37:21;;;;;;;22.33;6.88;;;17.70;99.90;;;18.02;58.17;102265.25;5102492;28;20409;-66
2023/05/23 08:39:51;;;;;;;23.63;7.10;;;17.80;99.90;;;18.27;59.76;102270.28;5099469;28;20080;-66
2023/05/23 08:42:38;;;;;;;18.95;6.55;;;18.00;99.90;;;17.84;59.29;102269.94;5094392;28;20409;-66
2023/05/23 08:45:10;;;;;;;24.75;7.45;;;17.80;99.90;;;17.93;58.99;102275.19;5095674;28;20048;-66
2023/05/23 08:47:42;;;;;;;26.35;7.63;;;17.80;99.90;;;17.92;58.94;102274.28;5083966;28;20051;-67
2023/05/23 08:50:15;;;;;;;23.08;6.47;;;17.70;99.90;;;18.02;58.77;102269.75;5085008;28;20047;-66
2023/05/23 08:52:54;;;;;;;22.63;6.78;;;17.80;99.90;;;17.96;58.37;102272.50;5082000;28;20151;-67
2023/05/23 08:55:25;;;;;;;25.02;6.75;;;17.80;99.90;;;17.95;58.08;102262.66;5096219;28;20093;-66
2023/05/23 08:57:55;;;;;;;19.00;6.35;;;17.80;99.90;;;17.77;57.69;102222.72;5100322;28;20048;-67
2023/05/23 09:00:53;;;;;;;20.58;6.85;;;17.90;99.90;;;18.31;57.53;102274.72;5076957;28;20511;-66
2023/05/23 09:03:22;;;;;;;20.10;7.10;;;18.10;99.90;;;18.40;57.63;102291.53;5098931;28;20075;-66
2023/05/23 09:06:02;;;;;;;23.65;7.65;;;18.20;99.90;;;18.30;57.69;102287.22;5062005;28;20140;-66
2023/05/23 09:08:31;;;;;;;;;;;18.10;99.90;;;18.37;56.71;102291.56;5101118;28;20477;-66
2023/05/23 09:11:01;;;;;;;21.88;7.00;;;18.20;99.90;;;18.15;56.13;102276.69;5083181;28;20266;-67
2023/05/23 09:13:32;;;;;;;17.42;6.63;;;18.20;99.90;;;18.26;56.91;102298.88;5082584;28;20056;-67
2023/05/23 09:16:06;;;;;;;24.85;7.28;;;18.10;99.90;;;18.44;57.60;102311.16;5101013;28;20096;-67
2023/05/23 09:18:42;;;;;;;31.55;7.43;;;18.20;99.90;;;18.55;57.52;102302.06;5078242;28;20048;-66
2023/05/23 09:21:14;;;;;;;17.00;6.18;;;18.40;99.90;;;18.45;55.77;102308.47;5100109;28;20093;-66
2023/05/23 09:23:55;;;;;;;23.00;7.07;;;18.30;99.90;;;18.45;56.25;102311.16;5084629;28;20097;-66
2023/05/23 09:26:26;;;;;;;20.75;7.47;;;18.30;99.90;;;18.36;55.84;102313.03;5098263;28;20071;-66
2023/05/23 09:28:58;;;;;;;17.10;5.78;;;18.20;99.90;;;18.36;55.82;102319.28;5084647;28;20039;-66
2023/05/23 09:31:27;;;;;;;;;;;18.20;99.90;;;17.69;56.46;102203.22;5084198;28;20045;-66
2023/05/23 09:33:58;;;;;;;22.88;7.13;;;18.20;99.90;;;18.39;56.91;102315.69;5099049;28;19935;-67
2023/05/23 09:36:32;;;;;;;17.52;6.40;;;18.20;99.90;;;18.59;56.88;102313.63;5101080;28;20074;-66
2023/05/23 09:39:04;;;;;;;17.80;6.45;;;18.30;99.90;;;18.81;56.36;102320.47;5093956;28;20048;-67
2023/05/23 09:41:34;;;;;;;18.58;7.07;;;18.50;99.90;;;18.95;56.39;102314.91;5099972;28;20060;-66
2023/05/23 09:44:07;;;;;;;14.95;5.65;;;18.70;99.90;;;19.07;55.43;102315.56;5098966;28;20543;-66
2023/05/23 09:46:38;;;;;;;18.60;6.50;;;18.80;99.90;;;19.06;54.13;102319.19;5081422;28;20144;-66
2023/05/23 09:49:17;;;;;;;18.40;6.43;;;18.90;99.90;;;19.14;53.66;102321.72;5060779;28;20075;-67
2023/05/23 09:51:59;;;;;;;22.98;7.00;;;18.90;99.90;;;19.18;54.77;102328.81;5079134;28;20052;-66
2023/05/23 09:54:27;;;;;;;21.10;7.65;;;19.00;99.90;;;18.36;54.89;102217.47;5081959;28;20055;-67
2023/05/23 09:56:59;;;;;;;22.58;6.10;;;18.80;99.90;;;18.97;55.14;102339.91;5077823;28;20052;-66
2023/05/23 09:59:31;;;;;;;22.30;6.80;;;18.80;99.90;;;18.87;54.62;102323.91;5084791;28;20393;-67
2023/05/23 10:02:03;;;;;;;20.48;6.70;;;18.80;99.90;;;18.86;54.47;102322.16;5083046;28;20044;-66
2023/05/23 10:04:34;;;;;;;29.35;7.65;;;18.70;99.90;;;19.03;55.27;102334.44;5081325;28;20140;-67
2023/05/23 10:07:14;;;;;;;23.27;6.80;;;18.80;99.90;;;19.04;54.90;102341.56;5084566;28;20105;-67
2023/05/23 10:09:45;;;;;;;17.85;6.57;;;18.80;99.90;;;18.84;54.58;102339.19;5079674;28;20055;-66
2023/05/23 10:12:47;;;;;;;22.10;7.15;;;18.70;99.90;;;18.62;55.27;102343.97;5083100;28;20044;-66
2023/05/23 10:15:19;;;;;;;21.85;6.63;;;18.40;99.90;;;18.52;56.12;102342.34;5082583;28;20048;-66
2023/05/23 10:18:06;;;;;;;27.13;7.25;;;18.30;99.90;;;18.34;56.82;102337.16;5081175;28;20048;-66
2023/05/23 10:20:39;;;;;;;21.85;7.40;;;18.20;99.90;;;18.13;56.71;102332.09;5065048;28;20391;-66